createdAt,value
2023-09-05T00:01:57.957Z,22.30
2023-09-05T00:04:25.429Z,22.20
2023-09-05T00:06:53.629Z,22.20
2023-09-05T00:09:20.452Z,22.20
2023-09-05T00:11:47.685Z,22.20
2023-09-05T00:14:16.873Z,22.10
2023-09-05T00:16:43.711Z,22.10
2023-09-05T00:19:11.720Z,22.10
2023-09-05T00:21:38.775Z,22.10
2023-09-05T00:24:34.420Z,22.10
2023-09-05T00:27:02.289Z,22.00
2023-09-05T00:29:31.107Z,22.00
2023-09-05T00:32:00.774Z,22.00
2023-09-05T00:34:28.415Z,21.90
2023-09-05T00:36:55.384Z,21.90
2023-09-05T00:39:22.290Z,21.90
2023-09-05T00:41:50.486Z,21.70
2023-09-05T00:44:19.062Z,21.80
2023-09-05T00:46:46.940Z,21.80
2023-09-05T00:49:16.245Z,21.80
2023-09-05T00:51:44.279Z,21.80
2023-09-05T00:54:12.571Z,21.80
2023-09-05T00:56:39.574Z,21.80
2023-09-05T00:59:08.147Z,21.70
2023-09-05T01:01:35.102Z,21.70
2023-09-05T01:04:02.090Z,21.70
2023-09-05T01:06:38.827Z,21.70
2023-09-05T01:09:17.465Z,21.70
2023-09-05T01:11:45.457Z,21.70
2023-09-05T01:14:14.450Z,21.60
2023-09-05T01:16:44.857Z,21.60
2023-09-05T01:19:13.678Z,21.60
2023-09-05T01:21:49.819Z,21.60
2023-09-05T01:24:20.827Z,21.50
2023-09-05T01:26:48.925Z,21.50
2023-09-05T01:29:16.849Z,21.50
2023-09-05T01:31:44.668Z,21.50
2023-09-05T01:34:11.466Z,21.40
2023-09-05T01:36:38.289Z,21.40
2023-09-05T01:39:05.358Z,21.40
2023-09-05T01:41:33.479Z,21.40
2023-09-05T01:44:00.592Z,21.40
2023-09-05T01:46:27.390Z,21.40
2023-09-05T01:48:54.196Z,21.40
2023-09-05T01:51:20.960Z,21.40
2023-09-05T01:53:47.782Z,21.40
2023-09-05T01:56:14.586Z,21.30
2023-09-05T01:58:42.726Z,21.30
2023-09-05T02:01:09.696Z,21.30
2023-09-05T02:03:36.951Z,21.30
2023-09-05T02:06:03.906Z,21.20
2023-09-05T02:08:30.976Z,21.20
2023-09-05T02:10:57.747Z,21.20
2023-09-05T02:13:25.087Z,21.20
2023-09-05T02:15:53.421Z,21.10
2023-09-05T02:18:20.222Z,21.10
2023-09-05T02:20:47.219Z,21.00
2023-09-05T02:23:14.204Z,21.00
2023-09-05T02:25:41.104Z,21.00
2023-09-05T02:28:07.924Z,21.10
2023-09-05T02:30:42.106Z,21.00
2023-09-05T02:33:10.324Z,21.00
2023-09-05T02:35:37.041Z,21.00
2023-09-05T02:38:04.095Z,21.00
2023-09-05T02:40:31.142Z,20.90
2023-09-05T02:42:57.963Z,20.90
2023-09-05T02:45:24.697Z,20.90
2023-09-05T02:47:51.679Z,20.80
2023-09-05T02:50:19.950Z,20.90
2023-09-05T02:52:48.334Z,20.90
2023-09-05T02:55:16.171Z,20.80
2023-09-05T02:57:43.018Z,20.80
2023-09-05T03:00:10.870Z,20.90
2023-09-05T03:02:41.198Z,20.90
2023-09-05T03:05:08.568Z,20.90
2023-09-05T03:07:36.670Z,20.90
2023-09-05T03:10:04.401Z,20.90
2023-09-05T03:12:31.311Z,20.90
2023-09-05T03:14:58.184Z,20.90
2023-09-05T03:17:25.117Z,20.90
2023-09-05T03:19:51.904Z,20.90
2023-09-05T03:22:18.646Z,20.90
2023-09-05T03:24:46.901Z,20.90
2023-09-05T03:27:14.642Z,20.90
2023-09-05T03:29:41.405Z,20.90
2023-09-05T03:32:08.193Z,20.80
2023-09-05T03:34:35.696Z,20.80
2023-09-05T03:37:02.569Z,20.80
2023-09-05T03:39:29.371Z,20.70
2023-09-05T03:41:57.580Z,20.80
2023-09-05T03:44:24.397Z,20.60
2023-09-05T03:46:51.512Z,20.80
2023-09-05T03:49:18.317Z,20.60
2023-09-05T03:51:45.196Z,20.50
2023-09-05T03:54:13.893Z,20.40
2023-09-05T03:56:40.742Z,20.40
2023-09-05T03:59:08.954Z,20.30
2023-09-05T04:01:35.794Z,20.20
2023-09-05T04:04:02.727Z,20.20
2023-09-05T04:06:29.594Z,20.00
2023-09-05T04:08:56.414Z,20.00
2023-09-05T04:11:23.275Z,19.90
2023-09-05T04:13:50.093Z,19.80
2023-09-05T04:16:18.356Z,19.80
2023-09-05T04:18:45.181Z,19.70
2023-09-05T04:21:12.289Z,19.60
2023-09-05T04:23:39.150Z,19.60
2023-09-05T04:26:06.044Z,19.50
2023-09-05T04:28:32.861Z,19.40
2023-09-05T04:31:03.463Z,19.40
2023-09-05T04:33:38.772Z,19.30
2023-09-05T04:36:08.194Z,19.20
2023-09-05T04:38:35.023Z,19.20
2023-09-05T04:41:02.364Z,19.10
2023-09-05T04:43:30.488Z,19.10
2023-09-05T04:45:57.880Z,19.00
2023-09-05T04:48:25.444Z,19.00
2023-09-05T04:50:54.161Z,18.90
2023-09-05T04:53:21.041Z,18.90
2023-09-05T04:55:49.130Z,18.80
2023-09-05T04:58:16.067Z,18.80
2023-09-05T05:00:43.057Z,18.70
2023-09-05T05:03:10.133Z,18.70
2023-09-05T05:05:37.227Z,18.70
2023-09-05T05:08:06.000Z,18.70
2023-09-05T05:10:35.085Z,18.70
2023-09-05T05:13:01.974Z,18.60
2023-09-05T05:15:28.925Z,18.60
2023-09-05T05:17:55.758Z,18.60
2023-09-05T05:20:22.776Z,18.60
2023-09-05T05:22:49.565Z,18.60
2023-09-05T05:25:17.775Z,18.60
2023-09-05T05:27:44.670Z,18.70
2023-09-05T05:30:13.133Z,18.70
2023-09-05T05:32:39.879Z,18.70
2023-09-05T05:35:08.020Z,18.80
2023-09-05T05:37:34.821Z,18.80
2023-09-05T05:40:01.800Z,18.90
2023-09-05T05:42:30.545Z,18.90
2023-09-05T05:44:57.334Z,18.90
2023-09-05T05:47:25.417Z,18.90
2023-09-05T05:49:52.311Z,19.00
2023-09-05T05:52:19.194Z,19.00
2023-09-05T05:54:46.008Z,19.10
2023-09-05T05:57:12.823Z,19.20
2023-09-05T05:59:42.120Z,19.20
2023-09-05T06:02:09.208Z,19.30
2023-09-05T06:04:36.048Z,19.40
2023-09-05T06:07:02.898Z,19.40
2023-09-05T06:09:30.063Z,19.50
2023-09-05T06:11:56.978Z,19.60
2023-09-05T06:14:23.813Z,19.70
2023-09-05T06:16:52.099Z,19.80
2023-09-05T06:19:19.335Z,20.00
2023-09-05T06:21:47.676Z,20.10
2023-09-05T06:24:14.893Z,20.30
2023-09-05T06:26:42.652Z,20.40
2023-09-05T06:29:09.751Z,20.60
2023-09-05T06:31:36.695Z,20.70
2023-09-05T06:34:04.926Z,20.90
2023-09-05T06:36:31.749Z,21.00
2023-09-05T06:38:58.589Z,21.20
2023-09-05T06:41:28.088Z,21.40
2023-09-05T06:43:56.341Z,21.70
2023-09-05T06:46:23.180Z,21.90
2023-09-05T06:48:50.027Z,22.10
2023-09-05T06:51:18.229Z,22.30
2023-09-05T06:53:45.551Z,22.50
2023-09-05T06:56:12.484Z,22.70
2023-09-05T06:58:39.227Z,23.00
2023-09-05T07:01:06.927Z,23.20
2023-09-05T07:03:34.101Z,23.50
2023-09-05T07:06:07.208Z,23.80
2023-09-05T07:08:35.783Z,24.20
2023-09-05T07:11:02.609Z,24.80
2023-09-05T07:13:29.369Z,25.40
2023-09-05T07:15:58.712Z,26.10
2023-09-05T07:18:26.083Z,26.80
2023-09-05T07:20:53.451Z,27.50
2023-09-05T07:23:20.431Z,28.30
2023-09-05T07:25:48.691Z,29.00
2023-09-05T07:28:15.629Z,29.60
2023-09-05T07:30:43.177Z,30.10
2023-09-05T07:33:10.153Z,30.60
2023-09-05T07:35:37.550Z,30.80
2023-09-05T07:38:04.731Z,31.00
2023-09-05T07:40:31.578Z,31.00
2023-09-05T07:43:01.452Z,31.10
2023-09-05T07:45:28.357Z,31.20
2023-09-05T07:47:55.265Z,31.20
2023-09-05T07:50:22.186Z,31.10
2023-09-05T07:52:49.078Z,31.00
2023-09-05T07:55:16.311Z,30.90
2023-09-05T07:57:43.315Z,30.60
2023-09-05T08:00:16.804Z,30.40
2023-09-05T08:02:44.550Z,30.10
2023-09-05T08:05:11.819Z,30.00
2023-09-05T08:07:39.573Z,29.80
2023-09-05T08:10:07.695Z,29.40
2023-09-05T08:12:35.020Z,29.10
2023-09-05T08:15:01.995Z,28.90
2023-09-05T08:17:31.706Z,28.80
2023-09-05T08:19:58.866Z,28.60
2023-09-05T08:22:25.883Z,28.40
2023-09-05T08:24:53.400Z,28.20
2023-09-05T08:27:20.708Z,28.00
2023-09-05T08:29:47.893Z,27.90
2023-09-05T08:32:14.816Z,27.80
2023-09-05T08:34:43.042Z,27.60
2023-09-05T08:37:09.900Z,27.60
2023-09-05T08:39:37.789Z,27.70
2023-09-05T08:42:06.262Z,27.70
2023-09-05T08:44:34.049Z,27.80
2023-09-05T08:47:04.115Z,27.90
2023-09-05T08:49:31.212Z,28.00
2023-09-05T08:52:03.770Z,28.10
2023-09-05T08:54:30.756Z,28.20
2023-09-05T08:56:59.496Z,28.20
2023-09-05T08:59:26.775Z,28.20
2023-09-05T09:01:55.691Z,28.20
2023-09-05T09:04:24.366Z,28.20
2023-09-05T09:06:55.639Z,28.30
2023-09-05T09:09:39.329Z,28.50
2023-09-05T09:12:07.249Z,28.60
2023-09-05T09:14:34.448Z,28.70
2023-09-05T09:17:01.704Z,28.80
2023-09-05T09:19:30.299Z,29.00
2023-09-05T09:22:01.909Z,29.10
2023-09-05T09:24:38.008Z,29.20
2023-09-05T09:27:06.512Z,29.20
2023-09-05T09:29:34.471Z,29.30
2023-09-05T09:32:04.672Z,29.40
2023-09-05T09:34:32.497Z,29.40
2023-09-05T09:36:59.519Z,29.40
2023-09-05T09:39:28.669Z,29.40
2023-09-05T09:42:00.658Z,29.40
2023-09-05T09:44:29.492Z,29.30
2023-09-05T09:46:57.795Z,29.30
2023-09-05T09:49:26.063Z,29.50
2023-09-05T09:51:57.548Z,29.70
2023-09-05T09:54:30.573Z,29.80
2023-09-05T09:57:01.824Z,29.90
2023-09-05T09:59:36.283Z,30.00
2023-09-05T10:02:10.672Z,30.00
2023-09-05T10:04:40.351Z,30.10
2023-09-05T10:07:08.213Z,30.20
2023-09-05T10:09:37.137Z,30.40
2023-09-05T10:12:07.378Z,30.60
2023-09-05T10:14:36.424Z,30.60
2023-09-05T10:17:04.070Z,30.50
2023-09-05T10:19:31.618Z,30.40
2023-09-05T10:21:59.430Z,30.30
2023-09-05T10:24:28.572Z,30.40
2023-09-05T10:26:55.772Z,30.40
2023-09-05T10:29:34.536Z,30.60
2023-09-05T10:32:02.734Z,30.80
2023-09-05T10:34:59.528Z,30.70
2023-09-05T10:37:43.777Z,30.90
2023-09-05T10:40:11.916Z,31.00
2023-09-05T10:42:44.192Z,31.20
2023-09-05T10:45:32.528Z,31.50
2023-09-05T10:48:02.390Z,31.70
2023-09-05T10:50:29.335Z,32.10
2023-09-05T10:53:22.355Z,32.30
2023-09-05T10:55:51.259Z,32.60
2023-09-05T10:58:38.369Z,32.90
2023-09-05T11:01:38.402Z,33.10
2023-09-05T11:04:17.227Z,33.20
2023-09-05T11:06:55.714Z,33.30
2023-09-05T11:09:22.801Z,33.30
2023-09-05T11:11:49.966Z,33.30
2023-09-05T11:14:16.959Z,33.20
2023-09-05T11:16:48.347Z,33.30
2023-09-05T11:19:30.314Z,33.60
2023-09-05T11:22:06.749Z,34.00
2023-09-05T11:24:34.028Z,34.30
2023-09-05T11:27:01.000Z,34.40
2023-09-05T11:29:29.573Z,34.60
2023-09-05T11:31:57.999Z,34.60
2023-09-05T11:34:26.536Z,34.70
2023-09-05T11:36:53.455Z,34.90
2023-09-05T11:39:26.237Z,35.00
2023-09-05T11:41:55.226Z,35.30
2023-09-05T11:44:32.052Z,35.50
2023-09-05T11:47:00.208Z,35.50
2023-09-05T11:49:29.969Z,35.20
2023-09-05T11:51:57.157Z,35.30
2023-09-05T11:54:24.142Z,35.50
2023-09-05T11:56:51.770Z,35.80
2023-09-05T11:59:18.912Z,36.10
2023-09-05T12:01:45.849Z,36.30
2023-09-05T12:04:12.731Z,36.40
2023-09-05T12:06:40.948Z,36.50
2023-09-05T12:09:10.417Z,36.50
2023-09-05T12:11:37.302Z,36.40
2023-09-05T12:14:04.855Z,36.50
2023-09-05T12:16:31.724Z,36.40
2023-09-05T12:18:59.467Z,36.20
2023-09-05T12:21:29.523Z,36.10
2023-09-05T12:24:17.122Z,35.90
2023-09-05T12:26:44.182Z,35.60
2023-09-05T12:29:11.092Z,35.30
2023-09-05T12:31:38.576Z,35.20
2023-09-05T12:34:05.426Z,35.20
2023-09-05T12:36:32.241Z,35.20
2023-09-05T12:39:00.401Z,35.00
2023-09-05T12:41:27.313Z,34.60
2023-09-05T12:43:56.222Z,34.30
2023-09-05T12:46:23.167Z,34.10
2023-09-05T12:48:55.054Z,33.90
2023-09-05T12:51:21.986Z,33.70
2023-09-05T12:53:50.853Z,33.60
2023-09-05T12:56:18.976Z,33.40
2023-09-05T12:58:45.812Z,33.20
2023-09-05T13:01:12.948Z,33.00
2023-09-05T13:03:41.342Z,32.70
2023-09-05T13:06:08.205Z,32.60
2023-09-05T13:08:35.084Z,32.60
2023-09-05T13:11:02.207Z,32.50
2023-09-05T13:13:30.488Z,32.60
2023-09-05T13:15:57.324Z,32.70
2023-09-05T13:18:24.394Z,32.60
2023-09-05T13:20:51.634Z,32.50
2023-09-05T13:23:19.050Z,32.50
2023-09-05T13:25:47.352Z,32.50
2023-09-05T13:28:14.346Z,32.50
2023-09-05T13:30:42.593Z,32.50
2023-09-05T13:33:12.611Z,32.30
2023-09-05T13:35:39.522Z,32.30
2023-09-05T13:38:06.478Z,32.20
2023-09-05T13:40:33.386Z,32.20
2023-09-05T13:43:01.234Z,32.30
2023-09-05T13:45:28.864Z,32.20
2023-09-05T13:47:57.299Z,32.10
2023-09-05T13:50:24.752Z,32.10
2023-09-05T13:52:51.648Z,32.00
2023-09-05T13:55:19.020Z,32.00
2023-09-05T13:57:49.986Z,31.90
2023-09-05T14:00:19.254Z,31.90
2023-09-05T14:02:46.196Z,31.90
2023-09-05T14:05:14.637Z,32.00
2023-09-05T14:07:42.357Z,32.00
2023-09-05T14:10:12.194Z,32.00
2023-09-05T14:12:39.262Z,31.90
2023-09-05T14:15:07.541Z,31.90
2023-09-05T14:17:34.425Z,32.00
2023-09-05T14:20:01.233Z,32.00
2023-09-05T14:22:29.457Z,32.20
2023-09-05T14:24:56.342Z,32.30
2023-09-05T14:27:23.386Z,32.30
2023-09-05T14:29:52.396Z,32.20
2023-09-05T14:32:19.704Z,32.10
2023-09-05T14:34:46.512Z,32.00
2023-09-05T14:37:13.375Z,32.00
2023-09-05T14:39:41.593Z,31.90
2023-09-05T14:42:09.041Z,31.90
2023-09-05T14:44:37.220Z,32.00
2023-09-05T14:47:06.908Z,32.00
2023-09-05T14:49:34.327Z,32.10
2023-09-05T14:52:01.207Z,32.10
2023-09-05T14:54:28.751Z,32.00
2023-09-05T14:56:57.013Z,32.00
2023-09-05T14:59:23.938Z,31.90
2023-09-05T15:01:51.051Z,31.90
2023-09-05T15:04:18.090Z,31.80
2023-09-05T15:06:45.120Z,31.70
2023-09-05T15:09:13.746Z,31.60
2023-09-05T15:11:40.752Z,31.60
2023-09-05T15:14:08.959Z,31.60
2023-09-05T15:16:36.393Z,31.50
2023-09-05T15:19:03.782Z,31.50
2023-09-05T15:21:30.791Z,31.50
2023-09-05T15:24:00.972Z,31.50
2023-09-05T15:26:27.888Z,31.60
2023-09-05T15:28:55.420Z,31.60
2023-09-05T15:31:23.693Z,31.50
2023-09-05T15:33:52.416Z,31.40
2023-09-05T15:36:19.414Z,31.30
2023-09-05T15:38:46.267Z,31.30
2023-09-05T15:41:13.086Z,31.10
2023-09-05T15:43:39.968Z,31.10
2023-09-05T15:46:07.336Z,31.00
2023-09-05T15:48:35.763Z,30.90
2023-09-05T15:51:03.499Z,30.80
2023-09-05T15:53:31.989Z,30.70
2023-09-05T15:55:58.893Z,30.60
2023-09-05T15:58:25.931Z,30.50
2023-09-05T16:00:53.181Z,30.50
2023-09-05T16:03:20.820Z,30.40
2023-09-05T16:05:49.968Z,30.30
2023-09-05T16:08:16.857Z,30.20
2023-09-05T16:10:45.707Z,30.10
2023-09-05T16:13:12.756Z,30.10
2023-09-05T16:15:39.766Z,30.10
2023-09-05T16:18:07.273Z,30.00
2023-09-05T16:20:46.034Z,30.00
2023-09-05T16:23:22.508Z,30.00
2023-09-05T16:25:51.295Z,29.90
2023-09-05T16:28:18.334Z,29.90
2023-09-05T16:30:45.192Z,29.80
2023-09-05T16:33:12.554Z,29.70
2023-09-05T16:35:39.496Z,29.60
2023-09-05T16:38:07.140Z,29.50
2023-09-05T16:40:36.870Z,29.30
2023-09-05T16:43:03.897Z,29.20
2023-09-05T16:45:30.817Z,29.10
2023-09-05T16:47:57.717Z,29.00
2023-09-05T16:50:24.823Z,29.00
2023-09-05T16:52:52.315Z,28.90
2023-09-05T16:55:19.182Z,28.80
2023-09-05T16:57:48.073Z,28.70
2023-09-05T17:00:16.718Z,28.70
2023-09-05T17:02:44.038Z,28.60
2023-09-05T17:05:11.241Z,28.50
2023-09-05T17:07:38.137Z,28.40
2023-09-05T17:10:06.035Z,28.40
2023-09-05T17:12:33.099Z,28.30
2023-09-05T17:15:01.240Z,28.20
2023-09-05T17:17:28.194Z,28.10
2023-09-05T17:19:54.967Z,28.00
2023-09-05T17:22:21.918Z,28.00
2023-09-05T17:24:48.845Z,27.90
2023-09-05T17:27:15.977Z,27.90
2023-09-05T17:29:42.971Z,27.80
2023-09-05T17:32:11.305Z,27.80
2023-09-05T17:34:38.091Z,27.70
2023-09-05T17:37:07.940Z,27.70
2023-09-05T17:39:35.627Z,27.70
2023-09-05T17:42:07.511Z,27.70
2023-09-05T17:44:34.504Z,27.60
2023-09-05T17:47:01.406Z,27.60
2023-09-05T17:49:29.648Z,27.60
2023-09-05T17:51:56.554Z,27.60
2023-09-05T17:54:23.484Z,27.50
2023-09-05T17:56:50.332Z,27.50
2023-09-05T17:59:17.883Z,27.40
2023-09-05T18:01:44.890Z,27.30
2023-09-05T18:04:12.167Z,27.30
2023-09-05T18:06:40.995Z,27.20
2023-09-05T18:09:08.431Z,27.10
2023-09-05T18:11:35.602Z,27.00
2023-09-05T18:14:02.877Z,27.00
2023-09-05T18:16:30.257Z,26.90
2023-09-05T18:18:57.735Z,26.80
2023-09-05T18:21:24.719Z,26.60
2023-09-05T18:23:52.956Z,26.50
2023-09-05T18:26:19.827Z,26.40
2023-09-05T18:28:46.765Z,26.30
2023-09-05T18:31:18.083Z,26.20
2023-09-05T18:33:46.488Z,26.10
2023-09-05T18:36:14.783Z,26.00
2023-09-05T18:38:41.995Z,25.80
2023-09-05T18:41:20.071Z,25.70
2023-09-05T18:43:47.377Z,25.60
2023-09-05T18:46:15.837Z,25.50
2023-09-05T18:48:44.407Z,25.30
2023-09-05T18:51:12.399Z,25.20
2023-09-05T18:53:40.183Z,25.10
2023-09-05T18:56:08.303Z,25.00
2023-09-05T18:58:37.092Z,24.90
2023-09-05T19:01:05.287Z,24.80
2023-09-05T19:03:32.583Z,24.70
2023-09-05T19:05:59.843Z,24.60
2023-09-05T19:08:28.008Z,24.50
2023-09-05T19:10:56.437Z,24.40
2023-09-05T19:13:23.423Z,24.30
2023-09-05T19:15:53.691Z,24.20
2023-09-05T19:18:23.079Z,24.10
2023-09-05T19:20:55.772Z,24.10
2023-09-05T19:23:23.046Z,24.00
2023-09-05T19:25:50.531Z,23.90
2023-09-05T19:28:17.396Z,23.80
2023-09-05T19:30:44.746Z,23.80
2023-09-05T19:33:13.282Z,23.70
2023-09-05T19:35:40.148Z,23.70
2023-09-05T19:38:06.920Z,23.70
2023-09-05T19:40:34.563Z,23.60
2023-09-05T19:43:04.376Z,23.50
2023-09-05T19:45:31.280Z,23.50
2023-09-05T19:47:58.308Z,23.40
2023-09-05T19:50:28.582Z,23.40
2023-09-05T19:52:55.515Z,23.30
2023-09-05T19:55:22.304Z,23.20
2023-09-05T19:57:49.648Z,23.20
2023-09-05T20:00:17.279Z,23.10
2023-09-05T20:02:44.538Z,23.10
2023-09-05T20:05:11.549Z,23.00
2023-09-05T20:07:39.811Z,23.00
2023-09-05T20:10:08.097Z,22.90
2023-09-05T20:12:35.453Z,22.90
2023-09-05T20:15:02.460Z,22.80
2023-09-05T20:17:29.376Z,22.80
2023-09-05T20:19:56.229Z,22.70
2023-09-05T20:22:24.985Z,22.70
2023-09-05T20:24:53.297Z,22.60
2023-09-05T20:27:20.280Z,22.60
2023-09-05T20:29:47.351Z,22.60
2023-09-05T20:32:14.171Z,22.60
2023-09-05T20:34:41.009Z,22.60
2023-09-05T20:37:07.911Z,22.50
2023-09-05T20:39:34.726Z,22.40
2023-09-05T20:42:04.259Z,22.40
2023-09-05T20:44:32.807Z,22.30
2023-09-05T20:46:59.749Z,22.30
2023-09-05T20:49:26.648Z,22.30
2023-09-05T20:51:53.674Z,22.30
2023-09-05T20:54:20.681Z,22.20
2023-09-05T20:56:47.772Z,22.20
2023-09-05T20:59:15.936Z,22.20
2023-09-05T21:01:42.882Z,22.10
2023-09-05T21:04:11.240Z,22.20
2023-09-05T21:06:38.576Z,22.10
2023-09-05T21:09:05.696Z,22.10
2023-09-05T21:11:32.636Z,22.10
2023-09-05T21:13:59.489Z,22.00
2023-09-05T21:16:27.657Z,22.10
2023-09-05T21:18:58.466Z,21.90
2023-09-05T21:21:25.520Z,21.90
2023-09-05T21:23:52.482Z,21.80
2023-09-05T21:26:19.356Z,21.70
2023-09-05T21:28:46.183Z,21.70
2023-09-05T21:31:15.577Z,21.60
2023-09-05T21:33:44.020Z,21.60
2023-09-05T21:36:11.142Z,21.60
2023-09-05T21:38:37.895Z,21.60
2023-09-05T21:41:04.766Z,21.60
2023-09-05T21:43:31.619Z,21.50
2023-09-05T21:45:58.796Z,21.50
2023-09-05T21:48:26.036Z,21.50
2023-09-05T21:50:54.516Z,21.50
2023-09-05T21:53:21.414Z,21.40
2023-09-05T21:55:48.258Z,21.40
2023-09-05T21:58:15.015Z,21.40
2023-09-05T22:00:43.390Z,21.30
2023-09-05T22:03:11.163Z,21.30
2023-09-05T22:05:38.357Z,21.30
2023-09-05T22:08:07.754Z,21.20
2023-09-05T22:10:37.469Z,21.20
2023-09-05T22:13:05.514Z,21.20
2023-09-05T22:15:33.975Z,21.20
2023-09-05T22:18:01.397Z,21.10
2023-09-05T22:22:56.430Z,21.10
2023-09-05T22:25:24.715Z,21.00
2023-09-05T22:27:51.678Z,21.00
2023-09-05T22:30:18.607Z,21.00
2023-09-05T22:32:45.534Z,20.90
2023-09-05T22:35:12.722Z,20.90
2023-09-05T22:37:39.784Z,20.80
2023-09-05T22:40:26.018Z,20.80
2023-09-05T22:42:54.632Z,20.70
2023-09-05T22:45:21.493Z,20.70
2023-09-05T22:47:49.011Z,20.60
2023-09-05T22:50:15.971Z,20.60
2023-09-05T22:52:43.334Z,20.60
2023-09-05T22:55:10.322Z,20.50
2023-09-05T22:57:37.262Z,20.50
2023-09-05T23:00:14.437Z,20.40
2023-09-05T23:02:41.473Z,20.40
2023-09-05T23:05:10.409Z,20.40
2023-09-05T23:07:37.267Z,20.40
2023-09-05T23:10:04.479Z,20.30
2023-09-05T23:12:31.471Z,20.30
2023-09-05T23:14:58.435Z,20.30
2023-09-05T23:17:26.946Z,20.20
2023-09-05T23:19:54.007Z,20.20
2023-09-05T23:22:20.881Z,20.10
2023-09-05T23:24:47.961Z,20.10
2023-09-05T23:27:14.836Z,20.10
2023-09-05T23:29:41.788Z,20.10
2023-09-05T23:32:08.679Z,20.10
2023-09-05T23:34:37.528Z,20.00
2023-09-05T23:37:05.630Z,20.00
2023-09-05T23:39:33.969Z,20.00
2023-09-05T23:42:00.850Z,20.00
2023-09-05T23:44:27.948Z,20.00
2023-09-05T23:46:55.652Z,20.00
2023-09-05T23:49:22.800Z,19.90
2023-09-05T23:51:54.931Z,20.00
2023-09-05T23:54:21.897Z,19.90
2023-09-05T23:56:50.470Z,19.90
2023-09-05T23:59:17.323Z,19.90
